Time;durP1;ratioP1;P1;durP2;ratioP2;P2;SDS_P1;SDS_P2;PMS_P1;PMS_P2;Temp;Humidity;BMP_temperature;BMP_pressure;BME280_temperature;BME280_humidity;BME280_pressure;Samples;Min_cycle;Max_cycle;Signal;HPM_P1;HPM_P2
2023/07/05 00:03:46;;;;;;;8.70;7.97;;;;;;;;;;10232508;28;20049;-70
2023/07/05 00:08:43;;;;;;;10.63;9.50;;;;;;;;;;10228224;28;20042;-70
2023/07/05 00:13:40;;;;;;;10.40;9.38;;;;;;;;;;10217917;28;20484;-71
2023/07/05 00:18:36;;;;;;;19.58;9.75;;;;;;;;;;10221201;28;20046;-71
2023/07/05 00:23:34;;;;;;;9.25;8.55;;;;;;;;;;10228412;28;20454;-72
2023/07/05 00:28:33;;;;;;;8.77;8.07;;;;;;;;;;10219136;28;20516;-72
2023/07/05 00:33:31;;;;;;;9.60;8.45;;;;;;;;;;10239819;28;20095;-69
2023/07/05 00:38:27;;;;;;;8.55;7.82;;;;;;;;;;10224362;28;20057;-69
2023/07/05 00:43:24;;;;;;;9.43;8.57;;;;;;;;;;10224876;28;20686;-70
2023/07/05 00:48:23;;;;;;;9.43;8.40;;;;;;;;;;10225281;28;20041;-70
2023/07/05 00:53:19;;;;;;;10.23;9.35;;;;;;;;;;10218040;28;20050;-69
2023/07/05 00:58:16;;;;;;;9.77;8.75;;;;;;;;;;10208681;28;20089;-70
2023/07/05 01:03:13;;;;;;;9.55;8.75;;;;;;;;;;10216090;28;20115;-70
2023/07/05 01:08:10;;;;;;;10.82;9.70;;;;;;;;;;10224645;28;20058;-70
2023/07/05 01:13:11;;;;;;;12.05;9.55;;;;;;;;;;10223927;28;20464;-70
2023/07/05 01:18:07;;;;;;;10.70;9.80;;;;;;;;;;10214826;28;20045;-71
2023/07/05 01:23:07;;;;;;;9.73;8.75;;;;;;;;;;10227917;28;20059;-70
2023/07/05 01:28:19;;;;;;;11.10;10.15;;;;;;;;;;10211117;28;20065;-74
2023/07/05 01:33:19;;;;;;;10.93;9.85;;;;;;;;;;10228584;28;20044;-73
2023/07/05 01:38:15;;;;;;;10.27;9.25;;;;;;;;;;10224201;28;20064;-74
2023/07/05 01:43:13;;;;;;;10.73;9.20;;;;;;;;;;10226931;28;20100;-71
2023/07/05 01:48:16;;;;;;;10.82;9.82;;;;;;;;;;10221946;28;20050;-71
2023/07/05 01:53:17;;;;;;;12.13;10.93;;;;;;;;;;10221429;28;20107;-71
2023/07/05 01:58:17;;;;;;;12.00;10.85;;;;;;;;;;10207863;28;20087;-71
2023/07/05 02:03:15;;;;;;;13.30;11.73;;;;;;;;;;10225564;28;20134;-71
2023/07/05 02:08:11;;;;;;;12.70;11.48;;;;;;;;;;10205471;28;20137;-71
2023/07/05 02:13:08;;;;;;;12.40;11.20;;;;;;;;;;10211391;28;20049;-71
2023/07/05 02:18:05;;;;;;;15.20;11.60;;;;;;;;;;10224052;28;20141;-70
2023/07/05 02:23:01;;;;;;;15.95;11.32;;;;;;;;;;10221194;28;20136;-70
2023/07/05 02:27:58;;;;;;;13.57;12.18;;;;;;;;;;10222626;28;20053;-70
2023/07/05 02:32:54;;;;;;;12.85;11.18;;;;;;;;;;10226108;28;20454;-70
2023/07/05 02:37:50;;;;;;;13.60;11.13;;;;;;;;;;10236012;28;20472;-70
2023/07/05 02:42:47;;;;;;;14.10;10.52;;;;;;;;;;10227518;28;20049;-70
2023/07/05 02:47:43;;;;;;;14.48;12.00;;;;;;;;;;10217084;28;20056;-70
2023/07/05 02:52:39;;;;;;;16.02;13.40;;;;;;;;;;10233195;28;20658;-70
2023/07/05 02:57:36;;;;;;;13.63;11.18;;;;;;;;;;10223534;28;20069;-70
2023/07/05 03:02:33;;;;;;;17.75;11.88;;;;;;;;;;10229397;28;20049;-70
2023/07/05 03:07:29;;;;;;;13.48;11.77;;;;;;;;;;10226214;28;20041;-70
2023/07/05 03:12:25;;;;;;;12.60;11.30;;;;;;;;;;10222212;28;20488;-70
2023/07/05 03:17:22;;;;;;;17.05;11.65;;;;;;;;;;10222148;28;20064;-69
2023/07/05 03:22:18;;;;;;;13.60;10.93;;;;;;;;;;10228785;28;20041;-70
2023/07/05 03:27:18;;;;;;;15.25;12.70;;;;;;;;;;10225832;28;20042;-69
2023/07/05 03:32:14;;;;;;;11.90;10.63;;;;;;;;;;10215373;28;20107;-73
2023/07/05 03:37:11;;;;;;;16.75;11.15;;;;;;;;;;10221321;28;20050;-72
2023/07/05 03:42:07;;;;;;;15.00;11.32;;;;;;;;;;10219474;28;20057;-72
2023/07/05 03:47:07;;;;;;;12.57;10.85;;;;;;;;;;10222385;28;20099;-73
2023/07/05 03:52:04;;;;;;;15.68;12.38;;;;;;;;;;10225302;28;20593;-74
2023/07/05 03:57:00;;;;;;;12.05;10.95;;;;;;;;;;10214935;28;20057;-74
2023/07/05 04:01:56;;;;;;;12.55;11.27;;;;;;;;;;10221430;28;20515;-74
2023/07/05 04:06:53;;;;;;;15.25;13.05;;;;;;;;;;10222180;28;20049;-74
2023/07/05 04:11:49;;;;;;;13.77;11.82;;;;;;;;;;10226707;28;20772;-74
2023/07/05 04:16:45;;;;;;;14.90;13.25;;;;;;;;;;10211717;28;20045;-73
2023/07/05 04:21:42;;;;;;;14.10;12.70;;;;;;;;;;10224592;28;20091;-74
2023/07/05 04:26:39;;;;;;;14.02;12.65;;;;;;;;;;10219721;28;20099;-74
2023/07/05 04:31:35;;;;;;;15.02;12.90;;;;;;;;;;10216585;28;20503;-73
2023/07/05 04:36:31;;;;;;;16.67;13.63;;;;;;;;;;10220184;28;20129;-73
2023/07/05 04:41:28;;;;;;;14.48;13.07;;;;;;;;;;10222596;28;20054;-74
2023/07/05 04:46:24;;;;;;;14.35;12.55;;;;;;;;;;10223715;28;20496;-74
2023/07/05 04:51:21;;;;;;;15.30;13.57;;;;;;;;;;10218956;28;20414;-72
2023/07/05 04:56:17;;;;;;;15.88;12.63;;;;;;;;;;10209680;28;20061;-73
2023/07/05 05:01:14;;;;;;;18.35;13.60;;;;;;;;;;10216397;28;20562;-74
2023/07/05 05:06:10;;;;;;;18.08;14.77;;;;;;;;;;10222555;28;21300;-73
2023/07/05 05:11:07;;;;;;;17.77;13.63;;;;;;;;;;10223528;28;20171;-74
2023/07/05 05:16:03;;;;;;;15.48;13.85;;;;;;;;;;10218687;28;20435;-73
2023/07/05 05:21:00;;;;;;;15.80;14.02;;;;;;;;;;10216224;28;20057;-73
2023/07/05 05:25:56;;;;;;;17.75;14.38;;;;;;;;;;10214245;28;20055;-72
2023/07/05 05:30:59;;;;;;;16.15;13.88;;;;;;;;;;10220077;28;20053;-72
2023/07/05 05:35:56;;;;;;;21.25;14.45;;;;;;;;;;10218741;28;20742;-72
2023/07/05 05:40:59;;;;;;;19.50;14.48;;;;;;;;;;10222144;28;20476;-72
2023/07/05 05:45:55;;;;;;;22.98;15.45;;;;;;;;;;10212704;28;20049;-72
2023/07/05 05:50:52;;;;;;;22.55;15.02;;;;;;;;;;10214961;28;20077;-72
2023/07/05 05:55:48;;;;;;;16.20;14.50;;;;;;;;;;10217497;28;20045;-72
2023/07/05 06:00:46;;;;;;;20.23;15.75;;;;;;;;;;10211338;28;20065;-72
2023/07/05 06:05:42;;;;;;;15.23;13.73;;;;;;;;;;10220526;28;20063;-72
2023/07/05 06:10:39;;;;;;;14.52;13.02;;;;;;;;;;10221707;28;20061;-72
2023/07/05 06:15:35;;;;;;;20.27;14.85;;;;;;;;;;10217057;28;20065;-72
2023/07/05 06:20:33;;;;;;;17.20;14.40;;;;;;;;;;10213936;28;20529;-72
2023/07/05 06:25:30;;;;;;;16.20;14.50;;;;;;;;;;10215859;28;20091;-72
2023/07/05 06:30:26;;;;;;;16.50;13.23;;;;;;;;;;10216030;28;20788;-72
2023/07/05 06:35:23;;;;;;;16.52;14.35;;;;;;;;;;10216986;28;20045;-72
2023/07/05 06:40:19;;;;;;;16.60;14.93;;;;;;;;;;10215489;28;20476;-72
2023/07/05 06:45:16;;;;;;;14.60;13.10;;;;;;;;;;10225615;28;20058;-72
2023/07/05 06:50:12;;;;;;;17.85;14.88;;;;;;;;;;10222974;28;20045;-72
2023/07/05 06:55:10;;;;;;;19.10;15.77;;;;;;;;;;10218077;28;20042;-72
2023/07/05 07:00:09;;;;;;;16.85;13.68;;;;;;;;;;10203167;28;20084;-71
2023/07/05 07:05:05;;;;;;;15.40;13.80;;;;;;;;;;10217619;28;20053;-71
2023/07/05 07:10:02;;;;;;;19.27;13.95;;;;;;;;;;10220722;28;20453;-71
2023/07/05 07:14:59;;;;;;;17.27;14.38;;;;;;;;;;10226133;28;20167;-72
2023/07/05 07:19:55;;;;;;;15.15;12.48;;;;;;;;;;10211878;28;20060;-72
2023/07/05 07:24:52;;;;;;;18.83;15.40;;;;;;;;;;10214606;28;20454;-71
2023/07/05 07:29:48;;;;;;;17.38;14.15;;;;;;;;;;10227617;28;20427;-72
2023/07/05 07:34:44;;;;;;;16.73;13.25;;;;;;;;;;10215331;28;20484;-73
2023/07/05 07:39:41;;;;;;;16.58;13.57;;;;;;;;;;10210305;28;20049;-73
2023/07/05 07:44:37;;;;;;;15.05;13.13;;;;;;;;;;10205375;28;20053;-72
2023/07/05 07:49:33;;;;;;;15.13;13.52;;;;;;;;;;10206741;28;20050;-72
2023/07/05 07:54:31;;;;;;;14.55;13.07;;;;;;;;;;10208104;28;20054;-73
2023/07/05 07:59:27;;;;;;;14.77;12.98;;;;;;;;;;10211501;28;20080;-72
2023/07/05 08:04:23;;;;;;;18.50;14.07;;;;;;;;;;10226479;28;20053;-72
2023/07/05 08:09:21;;;;;;;16.15;13.30;;;;;;;;;;10218724;28;20045;-72
2023/07/05 08:14:18;;;;;;;14.63;12.77;;;;;;;;;;10222562;28;20061;-72
2023/07/05 08:19:15;;;;;;;14.55;13.05;;;;;;;;;;10228225;28;20050;-73
2023/07/05 08:24:12;;;;;;;15.60;13.18;;;;;;;;;;10220901;28;20499;-72
2023/07/05 08:29:22;;;;;;;14.15;12.65;;;;;;;;;;10222211;28;20073;-72
2023/07/05 08:34:19;;;;;;;15.52;13.27;;;;;;;;;;10220100;28;20044;-72
2023/07/05 08:39:15;;;;;;;16.73;14.35;;;;;;;;;;10229841;28;20111;-72
2023/07/05 08:44:22;;;;;;;14.88;13.23;;;;;;;;;;10223388;28;20073;-71
2023/07/05 08:49:21;;;;;;;14.13;12.63;;;;;;;;;;10218592;28;20045;-73
2023/07/05 08:54:18;;;;;;;14.80;13.23;;;;;;;;;;10223423;28;20041;-73
2023/07/05 08:59:23;;;;;;;22.30;12.68;;;;;;;;;;10224537;28;20427;-72
2023/07/05 09:04:22;;;;;;;14.70;11.88;;;;;;;;;;10217991;28;20572;-73
2023/07/05 09:09:37;;;;;;;14.25;12.02;;;;;;;;;;10220796;28;20041;-73
2023/07/05 09:14:40;;;;;;;11.15;10.13;;;;;;;;;;10217052;28;20426;-73
2023/07/05 09:19:36;;;;;;;11.93;10.82;;;;;;;;;;10211249;28;20049;-74
2023/07/05 09:24:35;;;;;;;11.93;10.93;;;;;;;;;;10218640;28;20046;-72
2023/07/05 09:29:34;;;;;;;9.13;8.32;;;;;;;;;;10226396;28;20092;-72
2023/07/05 09:34:32;;;;;;;8.27;7.47;;;;;;;;;;10212879;28;20088;-73
2023/07/05 09:39:41;;;;;;;7.28;6.40;;;;;;;;;;10209359;28;20081;-73
2023/07/05 09:44:37;;;;;;;8.02;6.78;;;;;;;;;;10218868;28;20128;-72
2023/07/05 09:49:34;;;;;;;7.65;6.80;;;;;;;;;;10224698;28;20865;-72
2023/07/05 09:54:30;;;;;;;7.00;6.28;;;;;;;;;;10220520;28;20523;-72
2023/07/05 09:59:27;;;;;;;8.07;6.82;;;;;;;;;;10214689;28;20056;-72
2023/07/05 10:04:26;;;;;;;7.13;6.43;;;;;;;;;;10214935;28;20046;-73
2023/07/05 10:09:23;;;;;;;8.25;6.50;;;;;;;;;;10221320;28;20046;-72
2023/07/05 10:14:21;;;;;;;7.35;6.65;;;;;;;;;;10215996;28;20511;-72
2023/07/05 10:19:18;;;;;;;8.77;7.50;;;;;;;;;;10222238;28;20534;-72
2023/07/05 10:24:17;;;;;;;7.88;7.18;;;;;;;;;;10222458;28;20073;-73
2023/07/05 10:29:17;;;;;;;7.45;6.65;;;;;;;;;;10228488;28;20127;-73
2023/07/05 10:34:23;;;;;;;7.38;6.68;;;;;;;;;;10217866;28;20053;-73
2023/07/05 10:39:26;;;;;;;7.65;6.80;;;;;;;;;;10214243;28;20054;-72
2023/07/05 10:44:29;;;;;;;6.90;6.30;;;;;;;;;;10217479;28;20069;-72
2023/07/05 10:49:27;;;;;;;8.25;7.07;;;;;;;;;;10209474;28;20100;-73
2023/07/05 10:54:33;;;;;;;9.73;6.32;;;;;;;;;;10211683;28;20064;-72
2023/07/05 10:59:35;;;;;;;6.30;5.70;;;;;;;;;;10207041;28;20057;-73
2023/07/05 11:04:34;;;;;;;7.57;6.88;;;;;;;;;;10214093;28;20050;-73
2023/07/05 11:09:35;;;;;;;6.90;6.20;;;;;;;;;;10210897;28;20499;-73
2023/07/05 11:14:31;;;;;;;7.40;6.80;;;;;;;;;;10218277;28;20053;-73
2023/07/05 11:19:29;;;;;;;6.95;6.03;;;;;;;;;;10216779;28;20061;-72
2023/07/05 11:24:31;;;;;;;9.57;6.75;;;;;;;;;;10220218;28;20513;-73
2023/07/05 11:29:27;;;;;;;;;;;;;;;;;;10222696;28;20046;-73
2023/07/05 11:34:24;;;;;;;7.57;6.70;;;;;;;;;;10209688;28;19968;-73
2023/07/05 11:39:33;;;;;;;7.05;6.45;;;;;;;;;;10230699;28;20095;-73
2023/07/05 11:44:30;;;;;;;7.25;6.55;;;;;;;;;;10226975;28;20045;-73
2023/07/05 11:49:28;;;;;;;7.88;6.15;;;;;;;;;;10225437;28;20407;-73
2023/07/05 11:54:36;;;;;;;7.25;6.50;;;;;;;;;;10219180;28;20053;-73
2023/07/05 11:59:34;;;;;;;6.97;6.30;;;;;;;;;;10211099;28;20042;-73
2023/07/05 12:04:32;;;;;;;6.97;6.28;;;;;;;;;;10224655;28;20041;-73
2023/07/05 12:09:36;;;;;;;6.60;5.90;;;;;;;;;;10225714;28;20068;-73
2023/07/05 12:14:32;;;;;;;7.18;5.85;;;;;;;;;;10214052;28;20049;-72
2023/07/05 12:19:32;;;;;;;10.50;6.65;;;;;;;;;;10219872;28;20081;-73
2023/07/05 12:24:36;;;;;;;6.97;6.28;;;;;;;;;;10213232;28;20045;-72
2023/07/05 12:29:32;;;;;;;6.88;6.10;;;;;;;;;;10219218;28;20411;-72
2023/07/05 12:34:29;;;;;;;6.57;5.82;;;;;;;;;;10222024;28;20053;-72
2023/07/05 12:39:25;;;;;;;6.75;6.15;;;;;;;;;;10231624;28;20415;-73
2023/07/05 12:44:23;;;;;;;10.02;6.40;;;;;;;;;;10218924;28;20064;-72
2023/07/05 12:49:21;;;;;;;10.82;6.63;;;;;;;;;;10224127;28;20046;-73
2023/07/05 12:54:17;;;;;;;7.38;6.47;;;;;;;;;;10215197;28;20499;-72
2023/07/05 12:59:23;;;;;;;7.47;6.80;;;;;;;;;;10209301;28;20045;-72
2023/07/05 13:04:37;;;;;;;8.00;6.32;;;;;;;;;;10222241;28;20484;-72
2023/07/05 13:09:37;;;;;;;13.05;6.60;;;;;;;;;;10211575;28;20579;-73
2023/07/05 13:14:36;;;;;;;7.20;5.95;;;;;;;;;;10221805;28;20099;-72
2023/07/05 13:19:53;;;;;;;7.18;6.20;;;;;;;;;;10222342;28;20038;-72
2023/07/05 13:24:50;;;;;;;7.05;6.00;;;;;;;;;;10221453;28;20765;-73
2023/07/05 13:29:47;;;;;;;8.75;6.55;;;;;;;;;;10222589;28;20046;-72
2023/07/05 13:34:44;;;;;;;7.20;6.60;;;;;;;;;;10224495;28;20064;-72
2023/07/05 13:39:41;;;;;;;8.45;6.85;;;;;;;;;;10224267;28;20530;-72
2023/07/05 13:44:37;;;;;;;7.25;6.68;;;;;;;;;;10227564;28;20393;-72
2023/07/05 13:49:34;;;;;;;9.82;7.60;;;;;;;;;;10212080;28;20061;-73
2023/07/05 13:54:30;;;;;;;9.93;6.88;;;;;;;;;;10213827;28;20067;-72
2023/07/05 13:59:26;;;;;;;8.07;7.38;;;;;;;;;;10217783;28;20474;-72
2023/07/05 14:04:23;;;;;;;7.43;6.82;;;;;;;;;;10221552;28;20093;-73
2023/07/05 14:09:20;;;;;;;10.90;7.68;;;;;;;;;;10219331;28;20056;-72
2023/07/05 14:14:17;;;;;;;11.13;7.53;;;;;;;;;;10224334;28;20155;-72
2023/07/05 14:19:14;;;;;;;8.80;7.72;;;;;;;;;;10227464;28;20550;-73
2023/07/05 14:24:12;;;;;;;7.90;7.20;;;;;;;;;;10211611;28;20048;-73
2023/07/05 14:29:08;;;;;;;8.82;7.40;;;;;;;;;;10222909;28;20506;-72
2023/07/05 14:34:05;;;;;;;8.52;7.60;;;;;;;;;;10201676;28;20054;-72
2023/07/05 14:39:02;;;;;;;8.25;7.28;;;;;;;;;;10215147;28;20041;-72
2023/07/05 14:43:58;;;;;;;9.18;7.28;;;;;;;;;;10217268;28;20080;-72
2023/07/05 14:48:55;;;;;;;10.02;7.68;;;;;;;;;;10217365;28;20100;-72
2023/07/05 14:53:51;;;;;;;8.23;7.45;;;;;;;;;;10211784;28;20050;-72
2023/07/05 14:58:49;;;;;;;7.75;6.45;;;;;;;;;;10214914;28;20073;-72
2023/07/05 15:03:46;;;;;;;6.38;5.78;;;;;;;;;;10211631;28;20049;-72
2023/07/05 15:08:43;;;;;;;7.13;6.15;;;;;;;;;;10214534;28;20054;-72
2023/07/05 15:13:42;;;;;;;9.20;7.63;;;;;;;;;;10216992;28;20514;-73
2023/07/05 15:18:39;;;;;;;10.00;6.20;;;;;;;;;;10215036;28;20056;-72
2023/07/05 15:23:35;;;;;;;10.32;6.50;;;;;;;;;;10214332;28;20037;-70
2023/07/05 15:28:31;;;;;;;8.60;6.10;;;;;;;;;;10221481;28;20470;-73
2023/07/05 15:33:28;;;;;;;8.98;5.90;;;;;;;;;;10223212;28;20087;-72
2023/07/05 15:38:24;;;;;;;7.00;6.38;;;;;;;;;;10223875;28;20045;-75
2023/07/05 15:43:21;;;;;;;10.43;6.43;;;;;;;;;;10221131;28;20546;-75
2023/07/05 15:48:19;;;;;;;8.73;5.80;;;;;;;;;;10214917;28;20672;-74
2023/07/05 15:53:15;;;;;;;7.53;5.75;;;;;;;;;;10221497;28;20959;-74
2023/07/05 15:58:19;;;;;;;10.82;6.68;;;;;;;;;;10230758;28;20057;-74
2023/07/05 16:03:20;;;;;;;6.95;6.10;;;;;;;;;;10211593;28;20053;-74
2023/07/05 16:08:18;;;;;;;6.70;6.10;;;;;;;;;;10221592;28;20038;-73
2023/07/05 16:13:17;;;;;;;11.45;6.22;;;;;;;;;;10215416;28;20053;-73
2023/07/05 16:18:15;;;;;;;11.80;6.88;;;;;;;;;;10225736;28;20495;-73
2023/07/05 16:23:16;;;;;;;12.77;7.40;;;;;;;;;;10222507;28;20055;-73
2023/07/05 16:28:12;;;;;;;9.38;6.50;;;;;;;;;;10228222;28;20621;-72
2023/07/05 16:33:08;;;;;;;10.25;6.68;;;;;;;;;;10219566;28;20049;-72
2023/07/05 16:38:05;;;;;;;9.10;6.75;;;;;;;;;;10212679;28;20115;-73
2023/07/05 16:43:01;;;;;;;9.63;6.45;;;;;;;;;;10213662;28;20103;-73
2023/07/05 16:47:58;;;;;;;8.93;6.40;;;;;;;;;;10228481;28;20629;-73
2023/07/05 16:52:55;;;;;;;19.02;6.57;;;;;;;;;;10217545;28;20050;-73
2023/07/05 16:57:52;;;;;;;6.63;5.80;;;;;;;;;;10223765;28;20140;-72
2023/07/05 17:02:49;;;;;;;10.57;6.22;;;;;;;;;;10212533;28;20504;-72
2023/07/05 17:07:45;;;;;;;7.53;6.57;;;;;;;;;;10224981;28;20041;-72
2023/07/05 17:12:43;;;;;;;7.15;6.50;;;;;;;;;;10219474;28;20065;-73
2023/07/05 17:17:39;;;;;;;12.73;6.75;;;;;;;;;;10212765;28;20347;-72
2023/07/05 17:22:38;;;;;;;7.80;7.00;;;;;;;;;;10210192;28;20160;-72
2023/07/05 17:27:34;;;;;;;9.60;6.75;;;;;;;;;;10215433;28;20049;-72
2023/07/05 17:32:31;;;;;;;9.95;7.00;;;;;;;;;;10217300;28;20052;-71
2023/07/05 17:37:36;;;;;;;12.32;7.15;;;;;;;;;;10210083;28;20057;-71
2023/07/05 17:42:33;;;;;;;8.48;7.00;;;;;;;;;;10206382;28;20521;-71
2023/07/05 17:47:29;;;;;;;7.55;6.55;;;;;;;;;;10219832;28;20462;-72
2023/07/05 17:52:26;;;;;;;7.38;6.68;;;;;;;;;;10222957;28;20046;-72
2023/07/05 17:57:22;;;;;;;8.38;6.68;;;;;;;;;;10216159;28;20050;-72
2023/07/05 18:02:19;;;;;;;9.05;6.82;;;;;;;;;;10222648;28;20064;-72
2023/07/05 18:07:15;;;;;;;7.35;6.55;;;;;;;;;;10225941;28;21032;-72
2023/07/05 18:12:11;;;;;;;7.22;6.38;;;;;;;;;;10226140;28;20542;-72
2023/07/05 18:17:08;;;;;;;8.85;6.10;;;;;;;;;;10212674;28;20053;-72
2023/07/05 18:22:04;;;;;;;8.18;6.95;;;;;;;;;;10211035;28;20053;-72
2023/07/05 18:27:01;;;;;;;9.20;7.22;;;;;;;;;;10219305;28;20061;-72
2023/07/05 18:31:58;;;;;;;8.10;7.03;;;;;;;;;;10208065;28;20506;-72
2023/07/05 18:36:54;;;;;;;8.75;7.68;;;;;;;;;;10213276;28;20033;-72
2023/07/05 18:41:52;;;;;;;7.35;6.68;;;;;;;;;;10223872;28;20069;-71
2023/07/05 18:46:48;;;;;;;9.35;6.78;;;;;;;;;;10217105;28;20068;-71
2023/07/05 18:51:44;;;;;;;7.07;6.15;;;;;;;;;;10213861;28;20038;-71
2023/07/05 18:56:41;;;;;;;7.57;6.80;;;;;;;;;;10226147;28;20045;-71
2023/07/05 19:01:37;;;;;;;8.93;8.02;;;;;;;;;;10219428;28;20045;-71
2023/07/05 19:06:34;;;;;;;7.50;6.75;;;;;;;;;;10213034;28;20052;-71
2023/07/05 19:11:31;;;;;;;8.60;6.38;;;;;;;;;;10208637;28;20052;-71
2023/07/05 19:16:27;;;;;;;8.75;6.97;;;;;;;;;;10216732;28;20038;-71
2023/07/05 19:21:24;;;;;;;7.10;6.47;;;;;;;;;;10218097;28;20064;-72
2023/07/05 19:26:21;;;;;;;7.75;6.20;;;;;;;;;;10210928;28;20572;-71
2023/07/05 19:31:25;;;;;;;10.32;6.43;;;;;;;;;;10223234;28;20451;-71
2023/07/05 19:36:23;;;;;;;7.32;6.10;;;;;;;;;;10216047;28;20078;-72
2023/07/05 19:41:19;;;;;;;10.60;6.72;;;;;;;;;;10223557;28;20136;-71
2023/07/05 19:46:22;;;;;;;8.00;6.30;;;;;;;;;;10204911;28;20076;-71
2023/07/05 19:51:18;;;;;;;;;;;;;;;;;;10211676;28;20045;-71
2023/07/05 19:56:15;;;;;;;10.43;7.05;;;;;;;;;;10212073;28;19957;-72
2023/07/05 20:01:11;;;;;;;10.48;6.93;;;;;;;;;;10214729;28;20042;-71
2023/07/05 20:06:08;;;;;;;8.95;6.90;;;;;;;;;;10223369;28;20542;-71
2023/07/05 20:11:08;;;;;;;8.25;6.60;;;;;;;;;;10219421;28;20407;-72
2023/07/05 20:16:05;;;;;;;6.85;6.20;;;;;;;;;;10218392;28;20092;-72
2023/07/05 20:21:01;;;;;;;7.93;6.10;;;;;;;;;;10228385;28;20395;-71
2023/07/05 20:26:07;;;;;;;10.38;6.78;;;;;;;;;;10222887;28;20463;-72
2023/07/05 20:31:04;;;;;;;7.18;5.97;;;;;;;;;;10220356;28;20499;-72
2023/07/05 20:36:01;;;;;;;7.22;6.53;;;;;;;;;;10224719;28;20119;-72
2023/07/05 20:40:58;;;;;;;7.57;6.43;;;;;;;;;;10209612;28;20511;-71
2023/07/05 20:45:58;;;;;;;7.50;6.70;;;;;;;;;;10216093;28;20049;-71
2023/07/05 20:51:09;;;;;;;9.98;6.97;;;;;;;;;;10221111;28;20531;-71
2023/07/05 20:56:05;;;;;;;8.65;6.47;;;;;;;;;;10217908;28;20080;-71
2023/07/05 21:01:08;;;;;;;10.07;6.55;;;;;;;;;;10216415;28;20125;-71
2023/07/05 21:06:05;;;;;;;8.13;5.78;;;;;;;;;;10226469;28;20144;-71
2023/07/05 21:11:05;;;;;;;7.78;6.97;;;;;;;;;;10221412;28;20046;-71
2023/07/05 21:16:03;;;;;;;7.78;5.80;;;;;;;;;;10223453;28;20045;-72
2023/07/05 21:21:00;;;;;;;9.68;7.20;;;;;;;;;;10218282;28;20052;-71
2023/07/05 21:25:58;;;;;;;7.57;6.78;;;;;;;;;;10230256;28;20096;-70
2023/07/05 21:30:55;;;;;;;7.47;6.32;;;;;;;;;;10225233;28;20057;-71
2023/07/05 21:35:52;;;;;;;8.15;6.55;;;;;;;;;;10224162;28;20037;-71
2023/07/05 21:40:52;;;;;;;7.32;6.55;;;;;;;;;;10225600;28;20562;-73
2023/07/05 21:45:48;;;;;;;6.80;6.10;;;;;;;;;;10221126;28;20625;-71
2023/07/05 21:50:45;;;;;;;6.93;6.30;;;;;;;;;;10222916;28;20460;-71
2023/07/05 21:55:42;;;;;;;7.28;5.78;;;;;;;;;;10223299;28;20033;-71
2023/07/05 22:00:38;;;;;;;6.32;5.78;;;;;;;;;;10227195;28;20068;-71
2023/07/05 22:05:35;;;;;;;6.95;6.07;;;;;;;;;;10224632;28;20487;-71
2023/07/05 22:10:34;;;;;;;7.30;5.43;;;;;;;;;;10230007;28;20439;-71
2023/07/05 22:15:32;;;;;;;7.78;5.72;;;;;;;;;;10218199;28;20451;-71
2023/07/05 22:20:29;;;;;;;8.32;6.30;;;;;;;;;;10220890;28;20037;-72
2023/07/05 22:25:26;;;;;;;7.95;6.57;;;;;;;;;;10223988;28;20046;-72
2023/07/05 22:30:23;;;;;;;9.50;6.03;;;;;;;;;;10221987;28;20059;-70
2023/07/05 22:35:20;;;;;;;8.63;6.25;;;;;;;;;;10218784;28;20483;-70
2023/07/05 22:40:19;;;;;;;8.20;6.20;;;;;;;;;;10225491;28;20491;-73
2023/07/05 22:45:16;;;;;;;7.20;6.22;;;;;;;;;;10219259;28;20057;-72
2023/07/05 22:50:15;;;;;;;7.07;6.13;;;;;;;;;;10228118;28;20132;-72
2023/07/05 22:55:11;;;;;;;7.72;6.30;;;;;;;;;;10223832;28;20129;-72
2023/07/05 23:00:12;;;;;;;6.90;6.20;;;;;;;;;;10222432;28;20057;-72
2023/07/05 23:05:08;;;;;;;13.70;6.80;;;;;;;;;;10222728;28;20045;-72
2023/07/05 23:10:07;;;;;;;7.80;5.90;;;;;;;;;;10228614;28;20462;-72
2023/07/05 23:15:07;;;;;;;9.52;6.05;;;;;;;;;;10220115;28;20060;-72
2023/07/05 23:20:09;;;;;;;7.32;5.97;;;;;;;;;;10208888;28;20045;-71
2023/07/05 23:25:05;;;;;;;11.77;5.97;;;;;;;;;;10210801;28;21533;-72
2023/07/05 23:30:01;;;;;;;6.65;5.95;;;;;;;;;;10227077;28;20112;-70
2023/07/05 23:34:58;;;;;;;6.28;5.65;;;;;;;;;;10216903;28;20064;-72
2023/07/05 23:39:54;;;;;;;6.65;5.50;;;;;;;;;;10235207;28;20041;-73
2023/07/05 23:44:51;;;;;;;9.32;6.35;;;;;;;;;;10226084;28;20499;-72
2023/07/05 23:49:51;;;;;;;8.32;6.30;;;;;;;;;;10226504;28;20443;-72
2023/07/05 23:54:48;;;;;;;6.35;5.75;;;;;;;;;;10222111;28;20103;-71
2023/07/05 23:59:44;;;;;;;10.25;6.82;;;;;;;;;;10231053;28;20049;-72
